Terminal Aerodrome Forecast
Issued by NWS Anchorage, AK

Home | Current Version | Previous Version | Text Only | Print | Product List | Glossary On
Versions: 1 2 3 4 5 6 7 8 9 10 11 12 13 14 15 16 17 18 19 20 21 22 23 24 25 26 27 28 29 30 31 32 33 34
497
FTAK31 PANC 140538
TAFANC
TAF
PANC 140538Z 1406/1512 35008KT P6SM SCT080 BKN100
     FM141800 35010KT P6SM VCSH BKN070
     FM150000 15014G23KT P6SM VCSH BKN060
     FM150700 VRB06KT P6SM VCSH BKN060=

USA.gov is the U.S. government's official web portal to all federal, state and local government web resources and services.